Time;durP1;ratioP1;P1;durP2;ratioP2;P2;SDS_P1;SDS_P2;PMS_P1;PMS_P2;Temp;Humidity;BMP_temperature;BMP_pressure;BME280_temperature;BME280_humidity;BME280_pressure;Samples;Min_cycle;Max_cycle;Signal;HPM_P1;HPM_P2
2020/12/17 00:00:27;;;;;;;22.05;10.23;;;;;;;2.80;100.00;102236.81;1792613;80;21148;-60
2020/12/17 00:02:55;;;;;;;17.20;8.85;;;;;;;2.83;100.00;102239.53;1794905;80;21025;-60
2020/12/17 00:05:22;;;;;;;16.50;8.80;;;;;;;2.86;100.00;102241.33;1794925;80;21493;-61
2020/12/17 00:07:50;;;;;;;19.85;9.93;;;;;;;2.88;100.00;102234.75;1794855;80;21108;-60
2020/12/17 00:10:18;;;;;;;20.97;9.90;;;;;;;2.90;100.00;102237.00;1794929;79;21101;-61
2020/12/17 00:12:47;;;;;;;15.95;8.68;;;;;;;2.93;100.00;102239.70;1794973;80;21049;-61
2020/12/17 00:15:18;;;;;;;19.32;9.80;;;;;;;2.95;100.00;102237.98;1795012;80;21076;-61
2020/12/17 00:17:48;;;;;;;20.35;9.83;;;;;;;2.97;100.00;102244.20;1794970;80;21134;-61
2020/12/17 00:20:19;;;;;;;15.90;8.60;;;;;;;2.98;100.00;102238.95;1794978;80;21056;-61
2020/12/17 00:22:47;;;;;;;15.45;7.70;;;;;;;3.01;100.00;102243.43;1794996;79;21116;-61
2020/12/17 00:25:18;;;;;;;18.35;8.33;;;;;;;3.04;100.00;102243.48;1794869;80;21169;-60
2020/12/17 00:27:46;;;;;;;19.27;9.23;;;;;;;3.06;100.00;102239.52;1795071;80;21469;-62
2020/12/17 00:30:15;;;;;;;14.58;7.80;;;;;;;3.06;100.00;102239.11;1794877;80;21201;-61
2020/12/17 00:32:43;;;;;;;15.55;7.42;;;;;;;3.07;100.00;102232.95;1794890;80;21057;-61
2020/12/17 00:35:10;;;;;;;13.18;6.67;;;;;;;3.06;100.00;102235.13;1794937;80;21513;-60
2020/12/17 00:37:38;;;;;;;10.40;6.10;;;;;;;3.06;100.00;102223.20;1772431;80;21141;-61
2020/12/17 00:40:09;;;;;;;13.00;6.65;;;;;;;3.08;100.00;102224.13;1814983;79;21046;-60
2020/12/17 00:42:44;;;;;;;14.28;6.37;;;;;;;3.07;100.00;102221.02;1815173;79;23261;-61
2020/12/17 00:45:13;;;;;;;13.05;6.55;;;;;;;3.08;99.97;102220.56;1815069;79;21105;-61
2020/12/17 00:47:42;;;;;;;12.53;6.08;;;;;;;3.07;99.65;102232.03;1815011;79;21087;-60
2020/12/17 00:50:11;;;;;;;13.25;6.25;;;;;;;3.05;99.60;102225.40;1815003;79;21106;-61
2020/12/17 00:52:41;;;;;;;11.45;5.42;;;;;;;3.07;99.47;102222.34;1815023;78;21098;-61
2020/12/17 00:55:10;;;;;;;18.77;7.60;;;;;;;3.11;99.48;102221.53;1815037;79;21193;-62
2020/12/17 00:57:37;;;;;;;13.38;6.87;;;;;;;3.17;99.41;102219.44;1814861;79;21185;-60
2020/12/17 01:00:06;;;;;;;12.88;6.78;;;;;;;3.20;99.25;102223.89;1814858;79;21182;-61
2020/12/17 01:02:34;;;;;;;14.50;6.90;;;;;;;3.22;98.99;102219.09;1814366;79;21059;-60
2020/12/17 01:05:04;;;;;;;10.95;6.00;;;;;;;3.24;98.78;102221.78;1814420;79;21024;-60
2020/12/17 01:07:32;;;;;;;11.12;6.05;;;;;;;3.27;98.67;102217.86;1814554;79;22203;-60
2020/12/17 01:09:59;;;;;;;11.65;6.10;;;;;;;3.32;98.50;102219.28;1814524;79;21190;-60
2020/12/17 01:12:27;;;;;;;14.80;6.25;;;;;;;3.35;98.29;102222.86;1814473;78;21462;-60
2020/12/17 01:14:54;;;;;;;16.32;8.03;;;;;;;3.37;98.15;102210.98;1814345;78;21190;-61
2020/12/17 01:17:22;;;;;;;12.43;6.17;;;;;;;3.39;98.02;102201.29;1814442;78;21117;-60
2020/12/17 01:19:50;;;;;;;12.80;6.37;;;;;;;3.41;97.90;102201.76;1814334;79;21376;-60
2020/12/17 01:22:18;;;;;;;12.10;6.42;;;;;;;3.44;97.83;102199.19;1814330;78;21130;-60
2020/12/17 01:24:46;;;;;;;13.90;7.17;;;;;;;3.48;97.80;102196.59;1814496;79;21102;-60
2020/12/17 01:27:13;;;;;;;12.95;6.72;;;;;;;3.51;97.70;102201.49;1814476;79;21102;-61
2020/12/17 01:29:42;;;;;;;12.60;7.50;;;;;;;3.53;97.62;102197.55;1814371;78;21067;-60
2020/12/17 01:32:10;;;;;;;19.40;8.98;;;;;;;3.55;97.44;102195.82;1814478;78;21688;-60
2020/12/17 01:34:37;;;;;;;17.55;9.40;;;;;;;3.58;97.39;102201.17;1814410;78;21173;-61
2020/12/17 01:37:06;;;;;;;19.73;10.40;;;;;;;3.59;97.28;102201.62;1799722;79;21084;-60
2020/12/17 01:39:34;;;;;;;17.20;8.60;;;;;;;3.62;97.25;102201.68;1787723;80;21078;-61
2020/12/17 01:42:01;;;;;;;15.53;8.55;;;;;;;3.65;97.18;102204.41;1791408;80;21051;-60
2020/12/17 01:44:30;;;;;;;15.83;8.73;;;;;;;3.67;97.05;102202.67;1787777;80;21399;-60
2020/12/17 01:46:58;;;;;;;15.85;8.38;;;;;;;3.68;96.91;102203.14;1791337;80;21146;-61
2020/12/17 01:49:26;;;;;;;14.40;7.12;;;;;;;3.70;96.77;102200.48;1787782;80;21132;-61
2020/12/17 01:51:53;;;;;;;13.95;7.35;;;;;;;3.71;96.63;102204.51;1791418;80;21043;-61
2020/12/17 01:54:22;;;;;;;15.38;7.25;;;;;;;3.71;96.41;102195.64;1787810;80;21125;-60
2020/12/17 01:56:56;;;;;;;14.90;7.80;;;;;;;3.73;96.38;102196.14;1791337;80;21362;-61
2020/12/17 01:59:25;;;;;;;11.57;6.87;;;;;;;3.77;96.28;102202.40;1787886;80;21121;-60
2020/12/17 02:01:53;;;;;;;11.22;6.90;;;;;;;3.81;96.24;102198.02;1787533;80;21087;-60
2020/12/17 02:04:23;;;;;;;12.13;6.65;;;;;;;3.82;96.10;102193.16;1765823;81;21548;-61
2020/12/17 02:06:51;;;;;;;12.13;6.03;;;;;;;3.84;95.94;102196.73;1788309;80;21111;-59
2020/12/17 02:09:19;;;;;;;13.00;6.30;;;;;;;3.84;95.87;102192.75;1765788;81;21261;-60
2020/12/17 02:11:58;;;;;;;12.25;7.28;;;;;;;3.85;95.84;102195.45;1788233;80;21161;-60
2020/12/17 02:14:26;;;;;;;14.35;7.05;;;;;;;3.88;95.83;102197.27;1765842;81;21529;-61
2020/12/17 02:16:54;;;;;;;11.85;6.08;;;;;;;3.90;95.81;102191.55;1788349;80;21142;-61
2020/12/17 02:19:22;;;;;;;10.20;5.87;;;;;;;3.92;95.78;102191.55;1765739;81;21521;-60
2020/12/17 02:21:49;;;;;;;11.97;6.35;;;;;;;3.92;95.67;102187.58;1788339;80;21380;-60
2020/12/17 02:24:20;;;;;;;10.95;5.90;;;;;;;3.96;95.68;102189.41;1765674;81;21157;-61
2020/12/17 02:26:48;;;;;;;10.08;5.83;;;;;;;3.96;95.67;102190.31;1788423;80;21565;-60
2020/12/17 02:29:16;;;;;;;13.78;7.00;;;;;;;3.99;95.63;102194.34;1765698;81;21074;-61
2020/12/17 02:31:44;;;;;;;13.30;7.53;;;;;;;4.00;95.66;102194.79;1788329;80;21486;-60
2020/12/17 02:34:13;;;;;;;12.55;6.45;;;;;;;4.03;95.63;102193.95;1765755;80;21542;-61
2020/12/17 02:36:41;;;;;;;12.73;6.85;;;;;;;4.05;95.66;102190.89;1790832;79;21135;-61
2020/12/17 02:39:09;;;;;;;11.97;6.03;;;;;;;4.08;95.60;102187.37;1825749;78;21142;-61
2020/12/17 02:41:37;;;;;;;12.80;6.17;;;;;;;4.11;95.61;102188.77;1825761;78;21048;-60
2020/12/17 02:44:05;;;;;;;11.50;5.95;;;;;;;4.11;95.41;102188.77;1825810;78;21052;-61
2020/12/17 02:46:32;;;;;;;9.78;5.55;;;;;;;4.14;95.42;102194.12;1825711;78;22393;-60
2020/12/17 02:49:00;;;;;;;10.58;5.72;;;;;;;4.15;95.31;102193.25;1825769;78;21103;-60
2020/12/17 02:51:27;;;;;;;9.45;5.42;;;;;;;4.17;95.20;102196.81;1825766;78;21162;-60
2020/12/17 02:53:55;;;;;;;14.23;6.85;;;;;;;4.18;95.06;102191.97;1825845;78;21507;-61
2020/12/17 02:56:22;;;;;;;16.70;7.45;;;;;;;4.20;94.96;102195.53;1825814;78;21659;-60
2020/12/17 02:58:50;;;;;;;11.15;5.70;;;;;;;4.21;95.00;102193.78;1825864;78;21529;-61
2020/12/17 03:01:18;;;;;;;10.03;5.72;;;;;;;4.22;94.89;102199.09;1814854;78;21186;-60
2020/12/17 03:03:46;;;;;;;9.55;5.35;;;;;;;4.22;94.86;102197.77;1796383;79;21131;-61
2020/12/17 03:06:13;;;;;;;11.53;6.40;;;;;;;4.24;94.85;102201.79;1796428;79;21112;-60
2020/12/17 03:08:41;;;;;;;9.28;5.20;;;;;;;4.26;94.90;102202.25;1795808;79;21135;-60
2020/12/17 03:11:09;;;;;;;10.72;5.25;;;;;;;4.30;94.75;102202.75;1795881;79;21551;-61
2020/12/17 03:13:36;;;;;;;8.28;4.87;;;;;;;4.33;94.50;102202.36;1795796;79;21128;-61
2020/12/17 03:16:03;;;;;;;8.43;5.12;;;;;;;4.33;94.19;102207.67;1795830;79;20942;-61
2020/12/17 03:18:31;;;;;;;9.73;5.40;;;;;;;4.34;93.92;102212.98;1795692;79;21127;-61
2020/12/17 03:20:58;;;;;;;9.83;4.85;;;;;;;4.34;93.79;102209.45;1795822;79;21131;-60
2020/12/17 03:23:26;;;;;;;9.38;4.90;;;;;;;4.37;93.66;102209.05;1795738;79;21372;-61
2020/12/17 03:25:53;;;;;;;11.45;4.97;;;;;;;4.40;93.53;102206.87;1795826;79;21145;-61
2020/12/17 03:28:21;;;;;;;9.75;4.92;;;;;;;4.43;93.15;102206.92;1795777;79;21135;-61
2020/12/17 03:30:48;;;;;;;9.15;5.00;;;;;;;4.43;92.96;102202.94;1795770;79;21150;-61
2020/12/17 03:33:16;;;;;;;10.23;5.10;;;;;;;4.46;92.75;102206.08;1795770;79;21080;-59
2020/12/17 03:35:44;;;;;;;8.15;4.33;;;;;;;4.47;92.60;102211.39;1795781;79;21706;-60
2020/12/17 03:38:12;;;;;;;10.28;5.37;;;;;;;4.47;92.39;102204.76;1793864;79;21095;-60
2020/12/17 03:40:39;;;;;;;11.70;5.92;;;;;;;4.51;92.43;102212.34;1738738;82;21161;-60
2020/12/17 03:43:07;;;;;;;12.43;6.58;;;;;;;4.51;92.55;102207.03;1793856;80;21035;-61
2020/12/17 03:45:34;;;;;;;12.55;6.65;;;;;;;4.53;92.69;102210.17;1793799;80;21111;-60
2020/12/17 03:48:02;;;;;;;13.80;7.50;;;;;;;4.55;92.84;102212.41;1738839;82;22318;-60
2020/12/17 03:50:29;;;;;;;10.82;6.55;;;;;;;4.55;92.79;102217.73;1738624;82;21149;-61
2020/12/17 03:52:56;;;;;;;12.55;6.80;;;;;;;4.54;92.98;102213.28;1793812;80;21043;-61
2020/12/17 03:55:24;;;;;;;10.88;6.95;;;;;;;4.54;93.05;102207.97;1793799;80;21051;-60
2020/12/17 03:57:51;;;;;;;10.55;6.60;;;;;;;4.55;93.28;102209.76;1738754;82;21141;-61
2020/12/17 04:00:19;;;;;;;13.88;6.65;;;;;;;4.56;93.29;102208.88;1793710;80;21765;-61
2020/12/17 04:02:47;;;;;;;14.20;7.92;;;;;;;4.56;93.36;102202.66;1759984;81;21085;-61
2020/12/17 04:05:16;;;;;;;13.70;7.62;;;;;;;4.56;93.35;102207.56;1776951;80;21060;-60
2020/12/17 04:07:43;;;;;;;12.65;7.40;;;;;;;4.55;93.37;102204.45;1764321;81;21041;-60
2020/12/17 04:10:11;;;;;;;14.03;8.08;;;;;;;4.55;93.47;102200.45;1775794;80;21131;-60
2020/12/17 04:12:39;;;;;;;12.55;7.50;;;;;;;4.60;93.59;102201.83;1764310;81;21704;-61
2020/12/17 04:15:06;;;;;;;13.50;7.37;;;;;;;4.61;93.57;102204.06;1776860;80;21060;-61
2020/12/17 04:17:33;;;;;;;11.75;7.25;;;;;;;4.62;93.51;102205.39;1764258;81;21078;-60
2020/12/17 04:20:01;;;;;;;12.05;7.70;;;;;;;4.63;93.60;102199.66;1776977;80;21585;-61
2020/12/17 04:22:28;;;;;;;10.23;6.30;;;;;;;4.65;93.60;102205.88;1776915;80;21234;-59
2020/12/17 04:24:56;;;;;;;11.48;6.85;;;;;;;4.66;93.61;102207.66;1764435;81;21459;-61
2020/12/17 04:27:24;;;;;;;13.00;6.03;;;;;;;4.68;93.49;102200.61;1775797;80;21166;-61
2020/12/17 04:29:51;;;;;;;10.05;5.30;;;;;;;4.72;93.35;102203.33;1764426;81;21153;-60
2020/12/17 04:32:18;;;;;;;10.28;5.40;;;;;;;4.73;93.03;102204.20;1775774;80;21178;-61
2020/12/17 04:34:46;;;;;;;9.65;4.97;;;;;;;4.73;92.87;102210.42;1764279;81;21133;-60
2020/12/17 04:37:14;;;;;;;9.83;5.60;;;;;;;4.75;92.79;102212.21;1784258;80;21334;-60
2020/12/17 04:39:42;;;;;;;10.53;5.87;;;;;;;4.76;92.70;102213.58;1825582;78;21105;-60
2020/12/17 04:42:09;;;;;;;11.85;5.83;;;;;;;4.79;92.59;102216.27;1796324;79;21123;-62
2020/12/17 04:44:36;;;;;;;11.88;6.80;;;;;;;4.80;92.45;102215.39;1767701;79;21107;-61
2020/12/17 04:47:05;;;;;;;13.58;6.40;;;;;;;4.82;92.45;102224.27;1796383;79;21143;-60
2020/12/17 04:49:40;;;;;;;10.70;6.90;;;;;;;4.84;92.30;102221.19;1825653;78;21272;-60
2020/12/17 04:52:08;;;;;;;11.33;6.53;;;;;;;4.86;92.29;102230.49;1825680;78;21198;-60
2020/12/17 04:54:36;;;;;;;12.40;6.37;;;;;;;4.88;92.22;102230.11;1825681;78;21052;-61
2020/12/17 04:57:13;;;;;;;13.15;7.58;;;;;;;4.90;92.28;102228.78;1825699;78;21048;-61
2020/12/17 04:59:46;;;;;;;11.22;6.67;;;;;;;4.93;92.27;102236.37;1825707;78;21128;-60
2020/12/17 05:02:18;;;;;;;12.05;7.30;;;;;;;4.94;92.33;102231.92;1811325;78;21445;-60
2020/12/17 05:04:47;;;;;;;12.00;6.97;;;;;;;4.93;92.43;102236.37;1796309;79;21084;-60
2020/12/17 05:07:21;;;;;;;14.83;6.70;;;;;;;4.93;92.60;102236.78;1796310;79;21051;-60
2020/12/17 05:09:50;;;;;;;11.30;6.83;;;;;;;4.93;92.82;102236.78;1796368;79;21530;-60
2020/12/17 05:12:17;;;;;;;14.07;7.25;;;;;;;4.93;93.08;102243.43;1795767;79;21170;-61
2020/12/17 05:14:45;;;;;;;14.38;7.83;;;;;;;4.92;93.34;102242.98;1795910;79;21196;-60
2020/12/17 05:17:13;;;;;;;13.55;8.38;;;;;;;4.90;93.56;102243.40;1795896;79;21059;-59
2020/12/17 05:19:42;;;;;;;13.45;8.68;;;;;;;4.88;93.80;102244.27;1795914;79;21119;-60
2020/12/17 05:22:15;;;;;;;13.53;7.75;;;;;;;4.88;93.98;102245.60;1795896;79;21177;-60
2020/12/17 05:24:46;;;;;;;16.37;8.03;;;;;;;4.88;94.06;102245.60;1770418;79;21052;-60
2020/12/17 05:27:14;;;;;;;16.32;7.78;;;;;;;4.87;94.16;102245.60;1796053;79;22243;-60
2020/12/17 05:29:42;;;;;;;13.78;7.78;;;;;;;4.86;94.14;102247.77;1795857;79;21169;-60
2020/12/17 05:32:11;;;;;;;11.70;7.40;;;;;;;4.86;94.34;102242.03;1795953;79;21127;-62
2020/12/17 05:34:39;;;;;;;14.70;8.20;;;;;;;4.86;94.45;102244.69;1795830;79;21260;-60
2020/12/17 05:37:06;;;;;;;15.50;8.13;;;;;;;4.86;94.64;102247.35;1794931;79;21110;-61
2020/12/17 05:39:34;;;;;;;11.80;7.30;;;;;;;4.85;94.73;102248.22;1738794;82;21334;-60
2020/12/17 05:42:01;;;;;;;11.08;6.67;;;;;;;4.86;94.75;102247.35;1765123;80;21357;-60
2020/12/17 05:44:30;;;;;;;12.33;6.92;;;;;;;4.87;94.77;102254.45;1738912;82;21157;-61
2020/12/17 05:46:57;;;;;;;12.40;8.10;;;;;;;4.90;94.65;102251.38;1794000;80;21505;-60
2020/12/17 05:49:27;;;;;;;13.68;7.90;;;;;;;4.91;94.59;102253.16;1793974;80;21051;-60
2020/12/17 05:52:15;;;;;;;14.87;8.65;;;;;;;4.91;94.52;102251.83;1738797;82;21430;-60
2020/12/17 05:54:56;;;;;;;13.98;8.40;;;;;;;4.92;94.52;102249.20;1793890;80;21058;-61
2020/12/17 05:57:23;;;;;;;12.50;7.92;;;;;;;4.95;94.54;102252.31;1789734;80;21150;-60
2020/12/17 06:00:04;;;;;;;14.33;8.63;;;;;;;4.97;94.53;102254.55;1738770;82;21137;-60
2020/12/17 06:02:34;;;;;;;13.72;8.90;;;;;;;4.98;94.57;102264.34;1792367;80;21055;-60
2020/12/17 06:05:14;;;;;;;15.48;9.18;;;;;;;5.02;94.45;102270.15;1764605;81;22238;-61
2020/12/17 06:07:48;;;;;;;14.05;8.80;;;;;;;5.03;94.37;102263.95;1777060;80;21123;-61
2020/12/17 06:10:27;;;;;;;13.78;7.78;;;;;;;5.03;94.23;102262.62;1763051;81;21177;-61
2020/12/17 06:12:58;;;;;;;14.40;8.00;;;;;;;5.06;94.17;102264.41;1776976;80;21186;-61
2020/12/17 06:15:29;;;;;;;12.63;7.53;;;;;;;5.06;93.99;102261.75;1764479;81;21037;-60
2020/12/17 06:17:58;;;;;;;13.80;7.97;;;;;;;5.06;93.86;102265.32;1775405;80;21376;-60
2020/12/17 06:20:29;;;;;;;12.58;8.05;;;;;;;5.05;93.83;102267.52;1764391;81;21200;-61
2020/12/17 06:23:02;;;;;;;13.68;7.67;;;;;;;5.04;93.70;102267.49;1776005;80;21560;-61
2020/12/17 06:25:33;;;;;;;11.65;7.42;;;;;;;5.04;93.73;102272.39;1764358;81;21132;-61
2020/12/17 06:28:01;;;;;;;11.43;7.08;;;;;;;5.03;93.67;102270.61;1776995;80;21115;-61
2020/12/17 06:30:30;;;;;;;12.75;7.60;;;;;;;5.05;93.68;102271.52;1764404;81;21396;-62
2020/12/17 06:33:05;;;;;;;12.45;7.70;;;;;;;5.05;93.65;102265.28;1776963;80;21178;-61
2020/12/17 06:35:52;;;;;;;;;;;;;;;5.06;93.63;102270.64;1779586;80;21126;-61
2020/12/17 06:38:27;;;;;;;16.82;7.97;;;;;;;5.06;93.63;102265.32;1747721;82;20237;-61
2020/12/17 06:40:54;;;;;;;13.60;7.60;;;;;;;5.07;93.62;102265.77;1747962;82;21050;-62
2020/12/17 06:43:31;;;;;;;12.80;8.35;;;;;;;5.11;93.60;102272.03;1747707;82;21157;-61
2020/12/17 06:46:00;;;;;;;17.52;9.63;;;;;;;5.15;93.47;102278.71;1747890;82;21168;-61
2020/12/17 06:48:34;;;;;;;12.63;8.43;;;;;;;5.15;93.45;102278.71;1747736;82;21144;-61
2020/12/17 06:51:05;;;;;;;12.13;8.23;;;;;;;5.17;93.31;102269.44;1747878;82;21125;-61
2020/12/17 06:53:41;;;;;;;12.10;7.37;;;;;;;5.18;93.18;102271.64;1714130;82;21118;-63
2020/12/17 06:56:17;;;;;;;13.75;8.40;;;;;;;5.18;93.19;102271.64;1747889;82;22135;-62
2020/12/17 06:58:44;;;;;;;13.53;8.98;;;;;;;5.21;93.16;102273.91;1747589;82;20931;-61
2020/12/17 07:01:26;;;;;;;16.52;9.18;;;;;;;5.24;93.23;102275.73;1747700;82;21103;-61
2020/12/17 07:03:53;;;;;;;13.20;8.38;;;;;;;5.29;93.13;102273.55;1764864;81;21138;-61
2020/12/17 07:06:25;;;;;;;12.85;7.30;;;;;;;5.31;93.02;102284.22;1793320;80;21130;-61
2020/12/17 07:08:56;;;;;;;11.70;7.60;;;;;;;5.33;92.91;102282.47;1793250;80;21252;-61
2020/12/17 07:11:45;;;;;;;13.43;7.35;;;;;;;5.34;92.81;102277.61;1793283;80;21505;-62
2020/12/17 07:14:28;;;;;;;12.53;7.20;;;;;;;5.36;92.64;102290.48;1798900;78;21180;-63
2020/12/17 07:16:59;;;;;;;12.07;8.13;;;;;;;5.37;92.42;102289.61;1783308;79;21048;-61
2020/12/17 07:19:44;;;;;;;13.62;8.30;;;;;;;5.38;92.41;102294.05;1825655;78;21050;-62
2020/12/17 07:22:15;;;;;;;17.05;8.33;;;;;;;5.40;92.16;102295.41;1825814;78;22261;-61
2020/12/17 07:24:54;;;;;;;10.10;7.08;;;;;;;5.39;92.05;102287.85;1825412;78;21002;-61
2020/12/17 07:27:29;;;;;;;11.45;6.78;;;;;;;5.40;91.95;102286.98;1825623;78;21117;-61
2020/12/17 07:30:02;;;;;;;11.40;7.15;;;;;;;5.40;91.80;102286.98;1741690;80;21168;-61
2020/12/17 07:32:40;;;;;;;13.60;7.53;;;;;;;5.41;91.80;102296.73;1765468;81;21124;-61
2020/12/17 07:35:15;;;;;;;14.73;8.50;;;;;;;5.42;91.77;102291.91;1765331;81;22481;-61
2020/12/17 07:37:57;;;;;;;13.75;8.23;;;;;;;5.44;91.95;102298.13;1789367;79;21477;-61
2020/12/17 07:40:36;;;;;;;13.95;8.03;;;;;;;5.46;92.01;102299.46;1825726;78;21058;-61
2020/12/17 07:43:13;;;;;;;12.18;7.45;;;;;;;5.48;92.11;102300.37;1825759;78;21113;-61
2020/12/17 07:45:58;;;;;;;13.93;7.70;;;;;;;5.48;92.15;102295.50;1825739;78;21145;-61
2020/12/17 07:48:47;;;;;;;12.68;8.15;;;;;;;5.50;92.07;102304.39;1825806;78;21226;-61
2020/12/17 07:51:21;;;;;;;12.85;7.12;;;;;;;5.52;92.09;102307.50;1825612;78;21055;-61
2020/12/17 07:53:51;;;;;;;17.35;8.70;;;;;;;5.53;92.00;102312.41;1825726;78;21113;-61
2020/12/17 07:56:19;;;;;;;14.28;7.97;;;;;;;5.56;92.05;102313.77;1825705;78;21169;-61
2020/12/17 07:58:47;;;;;;;10.85;7.00;;;;;;;5.57;91.99;102315.55;1825854;78;21705;-61
2020/12/17 08:01:16;;;;;;;16.60;9.05;;;;;;;5.60;92.12;102304.93;1825682;78;21410;-63
2020/12/17 08:03:49;;;;;;;18.75;9.40;;;;;;;5.64;92.14;102306.77;1822939;78;21125;-61
2020/12/17 08:06:20;;;;;;;15.48;9.55;;;;;;;5.67;92.09;102306.80;1821935;78;21085;-61
2020/12/17 08:08:57;;;;;;;17.23;9.10;;;;;;;5.69;92.09;102304.14;1821817;78;21173;-62
2020/12/17 08:11:26;;;;;;;16.30;8.50;;;;;;;5.68;92.11;102308.59;1789679;78;21102;-61
2020/12/17 08:14:05;;;;;;;15.43;8.03;;;;;;;5.69;92.13;102309.04;1821888;78;21363;-61
2020/12/17 08:16:33;;;;;;;12.05;7.67;;;;;;;5.70;92.08;102302.84;1821954;78;21074;-61
2020/12/17 08:19:02;;;;;;;14.63;8.80;;;;;;;5.76;92.10;102302.44;1821839;78;21046;-60
2020/12/17 08:21:29;;;;;;;14.58;9.03;;;;;;;5.79;92.01;102301.13;1821873;78;21161;-60
2020/12/17 08:23:57;;;;;;;17.15;8.33;;;;;;;5.82;91.87;102295.83;1821858;78;21058;-60
2020/12/17 08:26:28;;;;;;;16.40;7.85;;;;;;;5.83;91.79;102292.30;1821923;78;21374;-61
2020/12/17 08:28:55;;;;;;;15.38;7.17;;;;;;;5.84;91.60;102291.41;1821879;78;21097;-61
2020/12/17 08:31:28;;;;;;;10.32;6.85;;;;;;;5.85;91.51;102286.12;1821896;78;21113;-61
2020/12/17 08:33:59;;;;;;;13.50;7.42;;;;;;;5.87;91.33;102286.15;1821959;78;21487;-61
2020/12/17 08:36:29;;;;;;;13.70;7.58;;;;;;;5.90;91.09;102287.50;1794973;78;21106;-61
2020/12/17 08:39:10;;;;;;;15.38;8.55;;;;;;;5.90;90.91;102289.26;1799757;78;22118;-61
2020/12/17 08:41:48;;;;;;;18.20;9.13;;;;;;;5.92;90.97;102287.08;1773548;79;21142;-61
2020/12/17 08:44:19;;;;;;;15.05;8.23;;;;;;;5.94;90.84;102280.41;1782419;80;21055;-61
2020/12/17 08:46:50;;;;;;;16.48;8.85;;;;;;;5.97;90.88;102277.34;1796345;79;21110;-61
2020/12/17 08:49:18;;;;;;;16.65;9.80;;;;;;;6.00;90.87;102280.03;1782483;80;21126;-61
2020/12/17 08:51:46;;;;;;;16.67;9.50;;;;;;;6.04;90.83;102280.09;1768793;80;21449;-61
2020/12/17 08:54:34;;;;;;;16.00;8.78;;;;;;;6.06;90.85;102282.33;1784259;78;21496;-61
2020/12/17 08:57:09;;;;;;;16.70;8.23;;;;;;;6.08;90.60;102262.83;1810114;78;21497;-61
2020/12/17 08:59:38;;;;;;;18.15;9.15;;;;;;;6.08;90.60;102262.83;1795979;78;37478;-61
2020/12/17 09:02:06;;;;;;;18.17;8.48;;;;;;;6.10;90.50;102270.84;1791014;78;21479;-61
2020/12/17 09:04:34;;;;;;;13.72;8.28;;;;;;;6.12;90.43;102268.62;1787714;80;21524;-61
2020/12/17 09:07:02;;;;;;;13.88;8.25;;;;;;;6.13;90.41;102274.86;1822033;78;22274;-61
2020/12/17 09:09:32;;;;;;;13.90;8.63;;;;;;;6.14;90.33;102272.65;1821879;78;21031;-61
2020/12/17 09:12:02;;;;;;;15.20;8.58;;;;;;;6.10;90.46;102257.53;1820913;78;21117;-61
2020/12/17 09:14:31;;;;;;;14.95;7.95;;;;;;;6.10;90.47;102270.84;1811259;78;21119;-62
2020/12/17 09:17:16;;;;;;;12.90;7.58;;;;;;;6.11;90.65;102266.84;1801170;79;21446;-61
2020/12/17 09:19:46;;;;;;;15.38;8.30;;;;;;;6.12;90.59;102269.08;1801512;79;21066;-60
2020/12/17 09:22:14;;;;;;;13.22;8.35;;;;;;;6.14;90.62;102271.31;1785370;80;21073;-61
2020/12/17 09:24:49;;;;;;;13.18;8.45;;;;;;;6.14;90.65;102259.33;1784112;80;21121;-61
2020/12/17 09:27:28;;;;;;;15.25;8.05;;;;;;;6.14;90.58;102260.20;1788138;80;21066;-61
2020/12/17 09:30:08;;;;;;;14.75;7.72;;;;;;;6.17;90.49;102263.34;1799670;78;21177;-61
2020/12/17 09:32:43;;;;;;;17.70;9.75;;;;;;;6.19;90.36;102254.02;1782867;78;21154;-60
2020/12/17 09:35:13;;;;;;;16.12;8.85;;;;;;;6.23;90.39;102263.38;1802257;77;21175;-63
2020/12/17 09:37:42;;;;;;;18.27;9.20;;;;;;;6.25;90.42;102260.28;1790584;79;21541;-61
2020/12/17 09:40:12;;;;;;;14.47;8.80;;;;;;;6.30;90.50;102258.57;1783770;80;21199;-61
2020/12/17 09:42:41;;;;;;;13.98;8.35;;;;;;;6.33;90.45;102251.48;1776601;79;22389;-61
2020/12/17 09:45:16;;;;;;;16.05;8.98;;;;;;;6.34;90.40;102258.59;1805379;79;21145;-61
2020/12/17 09:47:44;;;;;;;17.87;9.75;;;;;;;6.33;90.43;102256.81;1805674;79;21063;-61
2020/12/17 09:50:16;;;;;;;20.57;10.30;;;;;;;6.32;90.42;102255.90;1805445;79;21123;-60
2020/12/17 09:52:47;;;;;;;18.95;8.90;;;;;;;6.29;90.39;102251.42;1805474;79;21048;-62
2020/12/17 09:55:16;;;;;;;21.37;9.38;;;;;;;6.29;90.37;102248.77;1805592;79;21194;-61
2020/12/17 09:57:44;;;;;;;16.73;9.73;;;;;;;6.28;90.44;102258.09;1805382;79;21111;-61
2020/12/17 10:00:14;;;;;;;14.95;8.85;;;;;;;6.29;90.45;102254.55;1805710;79;21554;-60
2020/12/17 10:02:42;;;;;;;17.27;7.28;;;;;;;6.28;90.46;102253.64;1805666;79;21233;-61
2020/12/17 10:05:12;;;;;;;14.23;9.08;;;;;;;6.24;90.45;102257.17;1805773;79;21614;-61
2020/12/17 10:07:46;;;;;;;14.25;8.43;;;;;;;6.24;90.61;102253.17;1805629;79;21200;-60
2020/12/17 10:10:14;;;;;;;13.38;7.55;;;;;;;6.25;90.60;102254.95;1805744;79;20906;-61
2020/12/17 10:12:42;;;;;;;14.33;8.05;;;;;;;6.25;90.42;102248.30;1805647;79;21141;-61
2020/12/17 10:15:10;;;;;;;13.50;7.97;;;;;;;6.25;90.38;102248.76;1805623;79;21102;-61
2020/12/17 10:17:38;;;;;;;13.60;8.10;;;;;;;6.23;90.38;102246.06;1805743;79;21027;-60
2020/12/17 10:20:06;;;;;;;14.73;8.63;;;;;;;6.25;90.49;102248.30;1805627;79;21332;-61
2020/12/17 10:22:36;;;;;;;17.62;9.83;;;;;;;6.27;90.43;102244.33;1804136;79;21091;-61
2020/12/17 10:25:04;;;;;;;15.98;9.30;;;;;;;6.28;90.43;102240.78;1805608;79;21072;-61
2020/12/17 10:27:33;;;;;;;17.55;9.20;;;;;;;6.28;90.44;102247.44;1805727;79;21190;-61
2020/12/17 10:30:01;;;;;;;15.08;8.68;;;;;;;6.27;90.53;102243.87;1805686;79;21113;-61
2020/12/17 10:32:28;;;;;;;15.60;8.83;;;;;;;6.28;90.61;102238.99;1805700;79;21377;-61
2020/12/17 10:34:56;;;;;;;17.65;8.65;;;;;;;6.33;90.66;102246.15;1776395;79;21158;-61
2020/12/17 10:37:26;;;;;;;14.47;8.68;;;;;;;6.32;90.60;102236.38;1803574;79;21117;-61
2020/12/17 10:39:54;;;;;;;12.03;7.45;;;;;;;6.34;90.57;102234.61;1789558;80;21098;-61
2020/12/17 10:42:22;;;;;;;13.15;7.83;;;;;;;6.34;90.52;102234.16;1810504;79;21126;-61
2020/12/17 10:44:50;;;;;;;14.50;7.35;;;;;;;6.36;90.35;102232.84;1789679;80;21434;-61
2020/12/17 10:47:18;;;;;;;15.65;7.42;;;;;;;6.38;90.29;102228.42;1810423;79;21055;-61
2020/12/17 10:49:46;;;;;;;29.67;15.85;;;;;;;6.39;90.18;102227.53;1810457;79;21075;-62
2020/12/17 10:52:15;;;;;;;25.30;14.30;;;;;;;6.39;90.16;102223.08;1810451;79;21050;-61
2020/12/17 10:54:43;;;;;;;22.50;11.68;;;;;;;6.43;90.18;102222.23;1785340;79;21145;-60
2020/12/17 10:57:10;;;;;;;24.10;11.90;;;;;;;6.46;90.00;102224.02;1791855;80;21447;-60
2020/12/17 10:59:38;;;;;;;14.23;7.90;;;;;;;6.46;89.93;102217.35;1815044;77;21173;-57
2020/12/17 11:02:06;;;;;;;13.10;6.72;;;;;;;6.45;89.95;102214.23;1773407;80;21061;-58
2020/12/17 11:04:33;;;;;;;13.30;7.92;;;;;;;6.45;89.76;102217.81;1799683;79;21125;-58
2020/12/17 11:07:01;;;;;;;13.48;8.23;;;;;;;6.44;89.78;102212.45;1781657;80;21158;-57
2020/12/17 11:09:30;;;;;;;14.38;8.75;;;;;;;6.42;89.75;102208.89;1783272;80;21187;-58
2020/12/17 11:11:57;;;;;;;16.25;8.73;;;;;;;6.43;89.84;102206.25;1786684;80;21102;-58
2020/12/17 11:14:24;;;;;;;14.87;8.85;;;;;;;6.45;89.84;102209.81;1774359;79;21085;-61
2020/12/17 11:16:53;;;;;;;14.10;7.85;;;;;;;6.49;89.89;102205.83;1781436;80;21130;-60
2020/12/17 11:19:20;;;;;;;12.50;7.67;;;;;;;6.50;89.78;102208.48;1783719;80;21162;-61
2020/12/17 11:21:47;;;;;;;13.65;7.80;;;;;;;6.51;89.75;102216.92;1788279;80;21444;-61
2020/12/17 11:24:15;;;;;;;13.28;7.00;;;;;;;6.50;89.73;102214.27;1779084;80;21150;-61
2020/12/17 11:26:44;;;;;;;12.40;8.10;;;;;;;6.43;89.88;102202.69;1785829;80;21163;-60
2020/12/17 11:29:13;;;;;;;11.20;6.50;;;;;;;6.43;89.88;102202.69;1817255;77;21130;-62
2020/12/17 11:31:45;;;;;;;12.50;7.08;;;;;;;6.48;89.47;102210.71;1759298;80;21581;-61
2020/12/17 11:34:13;;;;;;;10.53;7.08;;;;;;;6.47;89.53;102202.27;1793465;78;22303;-62
2020/12/17 11:36:43;;;;;;;14.45;8.30;;;;;;;6.49;89.39;102205.38;1805420;78;21109;-61